Terminal Aerodrome Forecast
Issued by NWS

Home | Current Version | Previous Version | Graphics & Text | Print | Product List | Glossary On
Versions: 1 2 3 4 5 6 7 8 9 10 11 12 13 14 15 16
000
FTUS43 KICT 161720
TAFRSL
TAF
KRSL 161720Z 1618/1718 31012KT P6SM SCT020 BKN035
      TEMPO 1618/1620 BKN015
     FM162300 32008KT P6SM SCT200
     FM170900 28007KT P6SM FEW250=

USA.gov is the U.S. government's official web portal to all federal, state and local government web resources and services.